createdAt,value
2022-12-15T00:01:48.909Z,97.00
2022-12-15T00:04:34.087Z,110.33
2022-12-15T00:07:18.710Z,101.10
2022-12-15T00:10:03.947Z,106.33
2022-12-15T00:12:48.678Z,102.43
2022-12-15T00:15:33.677Z,92.77
2022-12-15T00:18:23.419Z,101.17
2022-12-15T00:21:08.390Z,84.87
2022-12-15T00:23:53.429Z,94.83
2022-12-15T00:26:38.859Z,84.63
2022-12-15T00:29:23.499Z,86.87
2022-12-15T00:32:08.353Z,83.43
2022-12-15T00:34:53.121Z,80.57
2022-12-15T00:37:37.892Z,83.07
2022-12-15T00:40:04.606Z,84.13
2022-12-15T00:42:31.065Z,85.03
2022-12-15T00:44:58.046Z,92.33
2022-12-15T00:47:24.882Z,86.50
2022-12-15T00:50:09.928Z,82.00
2022-12-15T00:52:54.802Z,80.20
2022-12-15T00:55:39.466Z,99.33
2022-12-15T00:58:24.574Z,88.10
2022-12-15T01:01:09.361Z,96.10
2022-12-15T01:03:54.947Z,93.00
2022-12-15T01:06:39.702Z,90.47
2022-12-15T01:09:26.854Z,89.33
2022-12-15T01:12:11.514Z,86.83
2022-12-15T01:14:56.397Z,87.83
2022-12-15T01:17:41.085Z,91.30
2022-12-15T01:20:17.496Z,84.97
2022-12-15T01:22:49.393Z,87.20
2022-12-15T01:25:17.635Z,90.07
2022-12-15T01:27:44.701Z,87.20
2022-12-15T01:30:14.395Z,90.70
2022-12-15T01:32:45.878Z,94.13
2022-12-15T01:35:16.911Z,85.17
2022-12-15T01:37:43.680Z,89.67
2022-12-15T01:40:34.858Z,94.47
2022-12-15T01:43:01.290Z,87.87
2022-12-15T01:45:27.683Z,84.07
2022-12-15T01:48:09.210Z,87.53
2022-12-15T01:50:41.801Z,93.83
2022-12-15T01:53:10.357Z,86.77
2022-12-15T01:55:39.658Z,92.53
2022-12-15T01:58:09.251Z,89.17
2022-12-15T02:00:35.803Z,84.90
2022-12-15T02:03:05.781Z,89.10
2022-12-15T02:05:33.486Z,85.33
2022-12-15T02:08:00.861Z,94.17
2022-12-15T02:10:42.529Z,87.20
2022-12-15T02:13:28.720Z,95.90
2022-12-15T02:16:15.449Z,101.80
2022-12-15T02:19:07.734Z,93.67
2022-12-15T02:21:45.524Z,89.37
2022-12-15T02:24:37.889Z,103.57
2022-12-15T02:27:34.036Z,102.60
2022-12-15T02:30:18.415Z,104.30
2022-12-15T02:33:07.270Z,98.00
2022-12-15T02:35:57.449Z,90.47
2022-12-15T02:38:36.062Z,83.20
2022-12-15T02:41:05.932Z,96.40
2022-12-15T02:43:36.327Z,102.93
2022-12-15T02:46:09.574Z,102.20
2022-12-15T02:48:55.586Z,98.83
2022-12-15T02:51:49.270Z,110.33
2022-12-15T02:54:39.786Z,119.23
2022-12-15T02:57:13.584Z,104.20
2022-12-15T02:59:54.673Z,113.30
2022-12-15T03:02:24.230Z,93.03
2022-12-15T03:04:51.574Z,92.03
2022-12-15T03:07:17.713Z,94.20
2022-12-15T03:09:44.339Z,91.07
2022-12-15T03:12:10.457Z,98.27
2022-12-15T03:18:55.883Z,97.77
2022-12-15T03:21:22.315Z,112.20
2022-12-15T04:21:35.811Z,120.33
2022-12-15T04:24:20.393Z,124.17
2022-12-15T04:27:07.880Z,133.13
2022-12-15T04:29:52.809Z,136.23
2022-12-15T04:32:37.534Z,125.90
2022-12-15T04:35:22.841Z,132.40
2022-12-15T04:38:08.184Z,133.40
2022-12-15T04:40:53.153Z,130.90
2022-12-15T04:43:38.345Z,140.27
2022-12-15T04:46:23.372Z,135.97
2022-12-15T04:49:08.742Z,136.87
2022-12-15T04:51:53.654Z,128.33
2022-12-15T04:54:38.882Z,128.07
2022-12-15T04:57:23.618Z,136.27
2022-12-15T05:00:08.705Z,134.93
2022-12-15T05:02:53.634Z,131.30
2022-12-15T05:05:39.208Z,130.73
2022-12-15T05:08:24.303Z,145.57
2022-12-15T05:11:09.545Z,138.63
2022-12-15T05:13:54.663Z,126.50
2022-12-15T05:16:39.754Z,137.33
2022-12-15T05:19:24.626Z,141.53
2022-12-15T05:22:09.583Z,131.93
2022-12-15T05:24:54.274Z,135.40
2022-12-15T05:27:39.522Z,119.47
2022-12-15T05:30:25.311Z,132.47
2022-12-15T05:32:51.794Z,124.07
2022-12-15T05:35:18.005Z,132.93
2022-12-15T05:37:44.529Z,120.67
2022-12-15T05:40:11.095Z,131.00
2022-12-15T05:42:37.804Z,121.27
2022-12-15T05:45:04.787Z,134.47
2022-12-15T05:47:31.538Z,122.13
2022-12-15T05:49:57.850Z,132.10
2022-12-15T05:52:24.433Z,133.03
2022-12-15T05:54:50.884Z,125.87
2022-12-15T05:57:17.465Z,137.97
2022-12-15T05:59:43.606Z,144.83
2022-12-15T06:02:10.810Z,151.97
2022-12-15T06:04:37.383Z,134.53
2022-12-15T06:07:04.032Z,148.13
2022-12-15T06:09:30.443Z,155.10
2022-12-15T06:11:57.066Z,146.77
2022-12-15T06:14:23.277Z,145.97
2022-12-15T06:16:51.639Z,140.43
2022-12-15T06:19:19.203Z,132.37
2022-12-15T06:21:45.756Z,131.60
2022-12-15T06:24:11.933Z,140.70
2022-12-15T06:26:39.490Z,132.60
2022-12-15T06:29:08.509Z,122.80
2022-12-15T06:31:36.588Z,118.57
2022-12-15T06:34:05.181Z,126.13
2022-12-15T06:36:32.044Z,133.40
2022-12-15T06:39:00.775Z,130.07
2022-12-15T06:41:29.719Z,129.63
2022-12-15T06:43:56.279Z,127.53
2022-12-15T06:46:24.166Z,129.43
2022-12-15T06:48:51.058Z,144.50
2022-12-15T06:51:17.743Z,135.47
2022-12-15T06:53:53.085Z,127.83
2022-12-15T06:56:28.934Z,129.23
2022-12-15T06:58:59.270Z,123.07
2022-12-15T07:01:25.850Z,123.50
2022-12-15T07:03:53.288Z,126.97
2022-12-15T07:06:20.349Z,126.37
2022-12-15T07:08:53.674Z,136.33
2022-12-15T07:11:21.361Z,127.20
2022-12-15T07:13:52.255Z,121.40
2022-12-15T07:16:21.014Z,145.30
2022-12-15T07:18:47.412Z,120.10
2022-12-15T07:21:14.147Z,142.43
2022-12-15T07:23:54.290Z,134.03
2022-12-15T07:26:22.972Z,131.07
2022-12-15T07:28:49.311Z,143.03
2022-12-15T07:31:15.980Z,152.23
2022-12-15T07:33:42.298Z,141.73
2022-12-15T07:36:10.222Z,136.70
2022-12-15T07:38:36.542Z,131.30
2022-12-15T07:41:06.116Z,138.33
2022-12-15T07:43:33.064Z,138.13
2022-12-15T07:46:01.309Z,139.77
2022-12-15T07:48:28.536Z,154.03
2022-12-15T07:51:05.091Z,134.20
2022-12-15T07:53:35.817Z,156.03
2022-12-15T07:56:09.639Z,153.40
2022-12-15T07:58:37.193Z,153.53
2022-12-15T08:01:08.080Z,157.90
2022-12-15T08:03:35.909Z,141.13
2022-12-15T08:06:11.556Z,159.00
2022-12-15T08:08:39.476Z,154.83
2022-12-15T08:11:07.583Z,147.27
2022-12-15T08:16:21.521Z,166.53
2022-12-15T08:18:48.111Z,157.10
2022-12-15T08:21:14.545Z,164.53
2022-12-15T08:23:40.952Z,176.77
2022-12-15T08:26:10.961Z,180.00
2022-12-15T08:28:39.259Z,169.07
2022-12-15T08:31:09.117Z,172.20
2022-12-15T08:33:36.317Z,193.13
2022-12-15T08:36:06.135Z,181.43
2022-12-15T08:38:33.705Z,229.87
2022-12-15T08:41:07.795Z,208.47
2022-12-15T08:43:34.908Z,205.30
2022-12-15T08:46:01.788Z,205.60
2022-12-15T08:48:28.245Z,190.27
2022-12-15T08:50:55.985Z,200.37
2022-12-15T08:53:31.133Z,215.60
2022-12-15T08:56:07.853Z,234.83
2022-12-15T08:58:34.513Z,205.67
2022-12-15T09:01:05.986Z,201.03
2022-12-15T09:03:35.971Z,208.00
2022-12-15T09:06:05.141Z,254.53
2022-12-15T09:08:32.391Z,281.43
2022-12-15T09:10:59.674Z,271.67
2022-12-15T09:13:26.591Z,248.70
2022-12-15T09:16:14.329Z,227.93
2022-12-15T09:18:47.052Z,201.77
2022-12-15T09:21:15.231Z,200.03
2022-12-15T09:23:42.573Z,179.50
2022-12-15T09:26:11.848Z,180.00
2022-12-15T09:28:39.920Z,173.27
2022-12-15T09:31:06.700Z,171.67
2022-12-15T09:33:34.123Z,169.97
2022-12-15T09:36:01.291Z,156.77
2022-12-15T09:38:27.577Z,158.63
2022-12-15T09:40:54.565Z,140.70
2022-12-15T09:43:46.635Z,170.27
2022-12-15T09:46:39.780Z,156.87
2022-12-15T09:49:19.043Z,159.07
2022-12-15T09:51:59.877Z,172.53
2022-12-15T09:54:33.525Z,152.63
2022-12-15T09:57:07.347Z,141.13
2022-12-15T09:59:40.079Z,125.50
2022-12-15T10:02:31.945Z,128.17
2022-12-15T10:05:16.051Z,135.23
2022-12-15T10:07:50.475Z,108.73
2022-12-15T10:10:42.370Z,106.63
2022-12-15T10:13:19.847Z,116.77
2022-12-15T10:16:15.097Z,107.77
2022-12-15T10:18:57.560Z,225.53
2022-12-15T10:21:28.027Z,147.13
2022-12-15T10:24:07.186Z,105.30
2022-12-15T10:26:34.927Z,107.53
2022-12-15T10:29:49.807Z,105.90
2022-12-15T10:32:18.848Z,108.30
2022-12-15T10:34:45.826Z,104.97
2022-12-15T10:37:17.627Z,104.70
2022-12-15T10:39:46.895Z,101.53
2022-12-15T10:42:20.403Z,104.67
2022-12-15T10:44:55.812Z,100.73
2022-12-15T10:47:25.492Z,99.93
2022-12-15T10:49:54.831Z,100.73
2022-12-15T10:52:36.902Z,102.73
2022-12-15T10:55:29.064Z,96.10
2022-12-15T10:58:43.686Z,89.57
2022-12-15T11:01:18.439Z,116.27
2022-12-15T11:03:45.734Z,101.73
2022-12-15T11:06:18.613Z,95.80
2022-12-15T11:08:46.742Z,92.77
2022-12-15T11:11:45.587Z,92.20
2022-12-15T11:14:15.869Z,84.90
2022-12-15T11:16:49.625Z,84.67
2022-12-15T11:19:47.002Z,90.73
2022-12-15T11:22:30.627Z,71.43
2022-12-15T11:25:04.503Z,75.37
2022-12-15T11:27:38.233Z,78.77
2022-12-15T11:30:21.838Z,62.17
2022-12-15T11:32:53.042Z,66.23
2022-12-15T11:35:26.167Z,53.90
2022-12-15T11:38:11.886Z,47.87
2022-12-15T11:40:39.198Z,52.10
2022-12-15T11:43:23.816Z,55.47
2022-12-15T11:45:58.946Z,53.70
2022-12-15T11:48:50.620Z,60.37
2022-12-15T11:51:25.323Z,50.47
2022-12-15T11:54:14.183Z,57.57
2022-12-15T11:57:10.045Z,59.73
2022-12-15T11:59:54.017Z,61.03
2022-12-15T12:02:27.360Z,57.07
2022-12-15T12:05:28.287Z,46.63
2022-12-15T12:08:16.734Z,44.63
2022-12-15T12:11:04.689Z,38.67
2022-12-15T12:13:53.583Z,39.03
2022-12-15T12:16:36.833Z,35.20
2022-12-15T12:19:15.674Z,36.77
2022-12-15T12:21:42.074Z,32.13
2022-12-15T12:24:24.297Z,32.97
2022-12-15T12:27:03.713Z,35.40
2022-12-15T12:29:48.832Z,33.23
2022-12-15T12:33:03.215Z,35.30
2022-12-15T12:35:40.068Z,35.77
2022-12-15T12:38:10.900Z,34.03
2022-12-15T12:40:40.566Z,37.73
2022-12-15T12:43:13.536Z,38.70
2022-12-15T12:45:56.853Z,38.83
2022-12-15T12:48:51.152Z,40.57
2022-12-15T12:51:30.940Z,36.03
2022-12-15T12:53:58.831Z,40.53
2022-12-15T12:56:39.384Z,37.40
2022-12-15T12:59:28.943Z,37.23
2022-12-15T13:02:16.983Z,38.00
2022-12-15T13:04:49.676Z,40.00
2022-12-15T13:07:32.027Z,40.03
2022-12-15T13:10:07.660Z,42.17
2022-12-15T13:12:58.506Z,35.57
2022-12-15T13:15:44.367Z,36.67
2022-12-15T13:18:23.138Z,34.07
2022-12-15T13:20:54.046Z,39.63
2022-12-15T13:23:22.928Z,36.27
2022-12-15T13:25:55.919Z,38.87
2022-12-15T13:28:46.852Z,38.07
2022-12-15T13:31:20.059Z,52.40
2022-12-15T13:33:49.683Z,40.77
2022-12-15T13:36:40.891Z,36.27
2022-12-15T13:39:16.166Z,37.33
2022-12-15T13:42:00.643Z,37.50
2022-12-15T13:44:42.708Z,41.37
2022-12-15T13:47:12.714Z,35.63
2022-12-15T13:49:53.218Z,38.47
2022-12-15T13:52:59.407Z,40.17
2022-12-15T13:55:22.661Z,38.03
2022-12-15T13:57:59.288Z,42.63
2022-12-15T14:00:25.751Z,42.73
2022-12-15T14:03:06.215Z,38.47
2022-12-15T14:05:33.843Z,39.43
2022-12-15T14:08:02.893Z,35.13
2022-12-15T14:10:32.048Z,37.93
2022-12-15T14:13:16.057Z,38.63
2022-12-15T14:15:46.600Z,35.67
2022-12-15T14:18:32.990Z,34.17
2022-12-15T14:21:04.055Z,41.97
2022-12-15T14:24:03.967Z,42.90
2022-12-15T14:26:31.296Z,36.93
2022-12-15T14:29:04.342Z,40.20
2022-12-15T14:31:31.012Z,44.40
2022-12-15T14:34:23.061Z,39.40
2022-12-15T14:36:50.887Z,37.43
2022-12-15T14:39:23.253Z,38.60
2022-12-15T14:41:51.395Z,48.20
2022-12-15T14:44:36.221Z,57.47
2022-12-15T14:47:19.615Z,57.73
2022-12-15T14:49:47.701Z,75.83
2022-12-15T14:52:30.310Z,77.97
2022-12-15T14:55:00.219Z,64.23
2022-12-15T14:57:28.100Z,57.67
2022-12-15T14:59:54.931Z,48.27
2022-12-15T15:02:29.809Z,43.10
2022-12-15T15:04:59.227Z,41.47
2022-12-15T15:07:30.887Z,43.03
2022-12-15T15:09:59.092Z,47.47
2022-12-15T15:12:49.205Z,42.93
2022-12-15T15:15:19.162Z,45.80
2022-12-15T15:17:52.727Z,40.67
2022-12-15T15:20:26.183Z,36.73
2022-12-15T15:23:07.914Z,42.43
2022-12-15T15:25:39.934Z,51.73
2022-12-15T15:28:36.183Z,61.50
2022-12-15T15:31:40.285Z,60.33
2022-12-15T15:34:08.163Z,69.70
2022-12-15T15:36:38.917Z,76.60
2022-12-15T15:39:13.000Z,71.60
2022-12-15T15:41:39.447Z,63.27
2022-12-15T15:44:12.219Z,70.30
2022-12-15T15:46:48.874Z,61.90
2022-12-15T15:49:19.054Z,78.37
2022-12-15T15:51:46.240Z,191.53
2022-12-15T15:54:15.789Z,166.67
2022-12-15T15:56:42.252Z,134.83
2022-12-15T15:59:11.789Z,87.17
2022-12-15T16:01:38.504Z,79.60
2022-12-15T16:04:06.029Z,96.40
2022-12-15T16:06:32.716Z,76.77
2022-12-15T16:08:59.074Z,106.37
2022-12-15T16:11:31.908Z,83.63
2022-12-15T16:13:58.243Z,78.60
2022-12-15T16:16:30.556Z,72.53
2022-12-15T16:18:56.928Z,64.47
2022-12-15T16:21:26.962Z,67.07
2022-12-15T16:23:56.184Z,55.90
2022-12-15T16:26:28.495Z,56.40
2022-12-15T16:28:54.835Z,52.70
2022-12-15T16:31:41.480Z,57.17
2022-12-15T16:34:08.605Z,50.67
2022-12-15T16:36:35.633Z,52.70
2022-12-15T16:39:03.078Z,55.30
2022-12-15T16:41:29.822Z,49.57
2022-12-15T16:43:56.410Z,52.00
2022-12-15T16:46:22.933Z,56.73
2022-12-15T16:48:49.169Z,54.77
2022-12-15T16:51:38.031Z,62.53
2022-12-15T16:54:05.620Z,55.43
2022-12-15T16:56:32.825Z,57.63
2022-12-15T16:59:30.805Z,62.63
2022-12-15T17:01:45.943Z,68.57
2022-12-15T17:04:12.277Z,80.60
2022-12-15T17:06:39.484Z,85.40
2022-12-15T17:09:08.096Z,75.63
2022-12-15T17:11:35.054Z,66.47
2022-12-15T17:14:01.378Z,60.23
2022-12-15T17:16:28.500Z,61.00
2022-12-15T17:18:55.574Z,69.30
2022-12-15T17:21:54.537Z,57.57
2022-12-15T17:24:21.722Z,57.93
2022-12-15T17:26:49.129Z,54.47
2022-12-15T17:29:19.677Z,59.90
2022-12-15T17:31:46.329Z,68.30
2022-12-15T17:34:30.710Z,63.53
2022-12-15T17:36:59.234Z,65.37
2022-12-15T17:39:26.711Z,59.30
2022-12-15T17:42:02.288Z,55.73
2022-12-15T17:44:36.067Z,67.33
2022-12-15T17:47:05.668Z,55.67
2022-12-15T17:49:36.140Z,75.30
2022-12-15T17:52:26.529Z,63.50
2022-12-15T17:54:53.828Z,55.57
2022-12-15T17:57:20.674Z,50.77
2022-12-15T17:59:47.421Z,55.60
2022-12-15T18:02:14.690Z,57.90
2022-12-15T18:04:41.664Z,51.43
2022-12-15T18:07:17.809Z,63.87
2022-12-15T18:09:44.280Z,60.37
2022-12-15T18:12:25.699Z,63.43
2022-12-15T18:14:53.336Z,73.07
2022-12-15T18:17:20.578Z,69.37
2022-12-15T18:19:46.889Z,66.03
2022-12-15T18:22:24.872Z,66.43
2022-12-15T18:24:52.706Z,71.30
2022-12-15T18:27:23.891Z,59.77
2022-12-15T18:29:51.257Z,111.80
2022-12-15T18:32:19.838Z,108.77
2022-12-15T18:34:46.424Z,135.83
2022-12-15T18:37:17.797Z,140.53
2022-12-15T18:39:44.832Z,170.27
2022-12-15T18:42:20.053Z,99.20
2022-12-15T18:44:51.876Z,87.03
2022-12-15T18:47:21.473Z,90.07
2022-12-15T18:49:47.970Z,187.10
2022-12-15T18:52:19.682Z,161.83
2022-12-15T18:54:47.395Z,159.97
2022-12-15T18:57:30.477Z,82.13
2022-12-15T18:59:58.890Z,71.27
2022-12-15T19:02:25.454Z,70.07
2022-12-15T19:04:52.478Z,77.47
2022-12-15T19:07:19.057Z,78.87
2022-12-15T19:09:45.388Z,65.87
2022-12-15T19:12:17.749Z,71.23
2022-12-15T19:14:46.325Z,88.93
2022-12-15T19:17:37.916Z,69.50
2022-12-15T19:20:31.392Z,74.83
2022-12-15T19:22:58.157Z,65.17
2022-12-15T19:25:27.591Z,68.17
2022-12-15T19:27:59.407Z,74.83
2022-12-15T19:30:35.706Z,90.47
2022-12-15T19:33:07.100Z,98.90
2022-12-15T19:35:33.560Z,102.57
2022-12-15T19:38:02.760Z,117.33
2022-12-15T19:40:32.232Z,112.13
2022-12-15T19:43:00.305Z,107.23
2022-12-15T19:45:30.107Z,164.50
2022-12-15T19:47:57.614Z,112.57
2022-12-15T19:50:29.948Z,75.47
2022-12-15T19:52:59.430Z,72.23
2022-12-15T19:55:34.820Z,80.23
2022-12-15T19:58:27.855Z,80.83
2022-12-15T20:01:00.531Z,71.53
2022-12-15T20:03:29.117Z,68.80
2022-12-15T20:05:57.887Z,70.13
2022-12-15T20:08:34.019Z,87.87
2022-12-15T20:11:00.683Z,78.77
2022-12-15T20:13:27.252Z,96.70
2022-12-15T20:15:54.548Z,153.87
2022-12-15T20:18:21.413Z,162.30
2022-12-15T20:20:48.917Z,125.00
2022-12-15T20:23:23.010Z,189.67
2022-12-15T20:25:49.730Z,508.10
2022-12-15T20:28:20.519Z,264.53
2022-12-15T20:30:47.937Z,166.57
2022-12-15T20:33:15.810Z,136.93
2022-12-15T20:35:44.324Z,116.80
2022-12-15T20:38:28.323Z,104.67
2022-12-15T20:40:55.862Z,90.20
2022-12-15T20:43:23.578Z,95.60
2022-12-15T20:45:58.473Z,92.33
2022-12-15T20:48:25.524Z,81.90
2022-12-15T20:50:52.618Z,77.20
2022-12-15T20:53:24.817Z,78.10
2022-12-15T20:55:52.903Z,84.23
2022-12-15T20:58:20.598Z,77.83
2022-12-15T21:00:48.994Z,90.67
2022-12-15T21:03:27.911Z,102.20
2022-12-15T21:05:56.628Z,106.23
2022-12-15T21:08:26.573Z,99.87
2022-12-15T21:10:55.497Z,112.53
2022-12-15T21:13:26.649Z,117.37
2022-12-15T21:15:53.292Z,126.17
2022-12-15T21:19:03.564Z,116.70
2022-12-15T21:21:16.278Z,107.60
2022-12-15T21:23:43.082Z,145.40
2022-12-15T21:26:10.221Z,108.83
2022-12-15T21:28:36.983Z,89.50
2022-12-15T21:31:03.502Z,89.73
2022-12-15T21:33:30.229Z,166.67
2022-12-15T21:35:56.710Z,196.90
2022-12-15T21:38:39.112Z,142.77
2022-12-15T21:41:10.887Z,107.97
2022-12-15T21:43:37.745Z,88.20
2022-12-15T21:46:14.224Z,93.30
2022-12-15T21:49:00.428Z,87.30
2022-12-15T21:51:31.031Z,87.47
2022-12-15T21:53:57.953Z,82.40
2022-12-15T21:56:24.469Z,83.03
2022-12-15T21:58:52.538Z,75.93
2022-12-15T22:01:29.752Z,74.13
2022-12-15T22:03:59.901Z,67.87
2022-12-15T22:06:28.689Z,81.20
2022-12-15T22:09:00.342Z,83.77
2022-12-15T22:11:29.472Z,76.13
2022-12-15T22:14:01.641Z,82.10
2022-12-15T22:16:29.107Z,76.00
2022-12-15T22:18:57.561Z,77.47
2022-12-15T22:21:24.576Z,72.27
2022-12-15T22:23:51.466Z,73.57
2022-12-15T22:26:30.966Z,68.80
2022-12-15T22:29:02.294Z,69.23
2022-12-15T22:31:28.872Z,67.03
2022-12-15T22:33:55.778Z,80.37
2022-12-15T22:36:22.317Z,77.10
2022-12-15T22:38:48.843Z,81.20
2022-12-15T22:41:20.675Z,78.70
2022-12-15T22:43:56.389Z,78.70
2022-12-15T22:46:24.047Z,83.90
2022-12-15T22:48:52.106Z,86.47
2022-12-15T22:51:18.568Z,86.70
2022-12-15T22:53:45.891Z,82.67
2022-12-15T22:56:34.691Z,96.90
2022-12-15T22:59:07.176Z,95.17
2022-12-15T23:01:34.540Z,88.90
2022-12-15T23:04:01.436Z,107.20
2022-12-15T23:06:27.704Z,94.27
2022-12-15T23:08:55.760Z,83.63
2022-12-15T23:11:37.583Z,104.27
2022-12-15T23:14:06.048Z,91.67
2022-12-15T23:16:34.285Z,87.63
2022-12-15T23:19:00.851Z,83.73
2022-12-15T23:21:28.102Z,94.53
2022-12-15T23:23:54.533Z,93.70
2022-12-15T23:26:22.563Z,85.53
2022-12-15T23:28:49.401Z,95.60
2022-12-15T23:31:15.810Z,90.53
2022-12-15T23:33:42.250Z,99.50
2022-12-15T23:36:09.593Z,116.17
2022-12-15T23:38:36.082Z,114.00
2022-12-15T23:41:02.640Z,130.37
2022-12-15T23:43:32.405Z,148.50
2022-12-15T23:46:02.301Z,162.47
2022-12-15T23:48:30.944Z,154.47
2022-12-15T23:51:14.595Z,118.50
2022-12-15T23:53:42.447Z,138.40
2022-12-15T23:56:14.230Z,143.73
2022-12-15T23:58:42.416Z,141.30
